createdAt,value
2018-04-13T00:02:09.932Z,25.40
2018-04-13T00:04:38.294Z,27.13
2018-04-13T00:07:06.621Z,24.27
2018-04-13T00:09:34.977Z,16.57
2018-04-13T00:12:03.308Z,18.57
2018-04-13T00:14:31.632Z,18.43
2018-04-13T00:16:59.985Z,20.93
2018-04-13T00:19:28.317Z,25.47
2018-04-13T00:21:56.671Z,20.50
2018-04-13T00:24:25.011Z,20.57
2018-04-13T00:26:53.377Z,29.10
2018-04-13T00:29:21.804Z,18.57
2018-04-13T00:31:50.158Z,25.47
2018-04-13T00:34:18.480Z,24.37
2018-04-13T00:36:46.828Z,26.23
2018-04-13T00:39:15.161Z,20.70
2018-04-13T00:41:43.509Z,21.27
2018-04-13T00:44:11.878Z,15.60
2018-04-13T00:46:40.188Z,18.77
2018-04-13T00:49:08.517Z,15.27
2018-04-13T00:51:36.882Z,19.77
2018-04-13T00:54:05.213Z,19.57
2018-04-13T00:56:33.560Z,18.53
2018-04-13T00:59:01.906Z,19.20
2018-04-13T01:01:30.261Z,20.47
2018-04-13T01:03:58.596Z,30.87
2018-04-13T01:06:26.941Z,20.90
2018-04-13T01:08:55.284Z,25.27
2018-04-13T01:11:23.624Z,20.47
2018-04-13T01:13:51.956Z,24.70
2018-04-13T01:16:20.310Z,16.27
2018-04-13T01:18:48.643Z,20.73
2018-04-13T01:21:16.994Z,23.70
2018-04-13T01:23:45.323Z,15.40
2018-04-13T01:26:13.668Z,18.80
2018-04-13T01:28:41.996Z,21.33
2018-04-13T01:31:10.380Z,22.60
2018-04-13T01:33:38.704Z,24.53
2018-04-13T01:36:07.056Z,19.20
2018-04-13T01:38:35.385Z,27.70
2018-04-13T01:41:03.732Z,19.87
2018-04-13T01:43:32.056Z,25.80
2018-04-13T01:46:00.409Z,22.17
2018-04-13T01:48:28.737Z,21.70
2018-04-13T01:50:57.085Z,23.70
2018-04-13T01:53:25.416Z,24.77
2018-04-13T01:55:53.769Z,26.83
2018-04-13T01:58:22.102Z,30.73
2018-04-13T02:00:50.451Z,39.83
2018-04-13T02:03:18.781Z,21.90
2018-04-13T02:05:47.131Z,34.93
2018-04-13T02:08:15.465Z,30.43
2018-04-13T02:10:43.826Z,32.83
2018-04-13T02:13:12.149Z,23.97
2018-04-13T02:15:40.482Z,21.07
2018-04-13T02:18:08.832Z,27.60
2018-04-13T02:20:37.161Z,21.97
2018-04-13T02:23:05.517Z,25.93
2018-04-13T02:25:33.841Z,25.10
2018-04-13T02:28:02.185Z,28.10
2018-04-13T02:30:30.514Z,22.20
2018-04-13T02:32:58.868Z,21.90
2018-04-13T02:35:27.192Z,19.90
2018-04-13T02:37:55.549Z,20.73
2018-04-13T02:40:23.880Z,25.93
2018-04-13T02:42:52.242Z,30.43
2018-04-13T02:45:20.572Z,32.47
2018-04-13T02:47:48.920Z,27.80
2018-04-13T02:50:17.249Z,34.90
2018-04-13T02:52:45.597Z,26.17
2018-04-13T02:55:13.938Z,24.40
2018-04-13T02:57:42.285Z,36.23
2018-04-13T03:00:10.613Z,27.90
2018-04-13T03:02:38.965Z,26.90
2018-04-13T03:05:07.292Z,25.73
2018-04-13T03:07:35.696Z,26.67
2018-04-13T03:10:03.977Z,25.67
2018-04-13T03:12:32.320Z,36.77
2018-04-13T03:15:00.653Z,40.13
2018-04-13T03:17:29.001Z,27.40
2018-04-13T03:19:57.328Z,37.63
2018-04-13T03:22:25.682Z,34.43
2018-04-13T03:24:54.024Z,36.53
2018-04-13T03:27:22.386Z,32.03
2018-04-13T03:29:50.713Z,31.70
2018-04-13T03:32:19.065Z,24.00
2018-04-13T03:34:47.392Z,32.53
2018-04-13T03:37:15.745Z,41.80
2018-04-13T03:39:44.073Z,27.13
2018-04-13T03:42:12.424Z,28.53
2018-04-13T03:44:40.757Z,29.80
2018-04-13T03:47:09.118Z,30.27
2018-04-13T03:49:37.450Z,33.17
2018-04-13T03:52:05.794Z,31.13
2018-04-13T03:54:34.172Z,30.73
2018-04-13T03:57:02.473Z,26.33
2018-04-13T03:59:30.800Z,29.80
2018-04-13T04:01:59.148Z,29.90
2018-04-13T04:04:27.481Z,31.13
2018-04-13T04:06:55.825Z,32.00
2018-04-13T04:09:24.153Z,30.13
2018-04-13T04:11:52.509Z,31.17
2018-04-13T04:14:20.849Z,32.00
2018-04-13T04:16:49.185Z,37.33
2018-04-13T04:19:17.528Z,31.67
2018-04-13T04:21:57.809Z,30.03
2018-04-13T04:24:37.820Z,29.20
2018-04-13T04:27:06.173Z,41.43
2018-04-13T04:29:34.492Z,34.97
2018-04-13T04:32:02.840Z,33.27
2018-04-13T04:34:31.253Z,29.50
2018-04-13T04:36:59.577Z,29.63
2018-04-13T04:39:27.969Z,27.47
2018-04-13T04:41:56.305Z,34.30
2018-04-13T04:44:24.656Z,30.15
2018-04-13T04:46:52.985Z,35.20
2018-04-13T04:49:21.342Z,31.50
2018-04-13T04:51:49.672Z,32.27
2018-04-13T04:54:18.028Z,30.90
2018-04-13T04:56:46.353Z,35.83
2018-04-13T04:59:14.711Z,37.03
2018-04-13T05:01:43.053Z,34.63
2018-04-13T05:04:11.404Z,29.00
2018-04-13T05:06:40.704Z,31.42
2018-04-13T05:09:09.053Z,32.23
2018-04-13T05:11:37.386Z,34.57
2018-04-13T05:14:05.752Z,33.27
2018-04-13T05:16:35.037Z,35.77
2018-04-13T05:19:03.397Z,30.40
2018-04-13T05:21:31.731Z,35.83
2018-04-13T05:24:00.073Z,31.97
2018-04-13T05:26:28.431Z,32.50
2018-04-13T05:28:56.769Z,31.67
2018-04-13T05:31:25.094Z,31.70
2018-04-13T05:33:53.453Z,32.27
2018-04-13T05:36:21.785Z,33.13
2018-04-13T05:38:50.129Z,29.13
2018-04-13T05:41:18.490Z,34.70
2018-04-13T05:43:46.832Z,35.00
2018-04-13T05:46:15.156Z,35.77
2018-04-13T05:48:43.516Z,30.80
2018-04-13T05:51:11.898Z,27.27
2018-04-13T05:53:40.241Z,30.37
2018-04-13T05:56:08.569Z,34.10
2018-04-13T05:58:36.924Z,32.78
2018-04-13T06:01:05.253Z,24.20
2018-04-13T06:03:33.605Z,26.75
2018-04-13T06:06:01.939Z,24.00
2018-04-13T06:08:30.287Z,28.62
2018-04-13T06:10:58.609Z,32.33
2018-04-13T06:13:26.979Z,33.73
2018-04-13T06:15:55.289Z,25.73
2018-04-13T06:18:23.633Z,27.57
2018-04-13T06:20:51.965Z,25.25
2018-04-13T06:23:20.396Z,24.53
2018-04-13T06:25:48.708Z,31.48
2018-04-13T06:28:17.100Z,25.07
2018-04-13T06:30:45.432Z,30.40
2018-04-13T06:33:13.808Z,32.63
2018-04-13T06:35:42.132Z,37.43
2018-04-13T06:38:10.469Z,23.95
2018-04-13T06:40:38.812Z,27.90
2018-04-13T06:43:07.144Z,34.10
2018-04-13T06:45:35.497Z,33.67
2018-04-13T06:48:03.859Z,23.50
2018-04-13T06:50:32.204Z,24.90
2018-04-13T06:53:00.528Z,32.40
2018-04-13T06:55:28.880Z,26.73
2018-04-13T06:57:57.207Z,27.90
2018-04-13T07:00:25.552Z,33.23
2018-04-13T07:02:53.884Z,40.70
2018-04-13T07:05:22.236Z,28.90
2018-04-13T07:07:50.568Z,32.78
2018-04-13T07:10:18.945Z,24.17
2018-04-13T07:12:47.277Z,23.10
2018-04-13T07:15:15.629Z,23.43
2018-04-13T07:17:43.957Z,21.67
2018-04-13T07:20:12.304Z,30.17
2018-04-13T07:22:40.628Z,27.33
2018-04-13T07:25:08.973Z,28.27
2018-04-13T07:27:37.307Z,24.43
2018-04-13T07:30:05.642Z,25.10
2018-04-13T07:32:33.966Z,27.93
2018-04-13T07:35:02.309Z,30.33
2018-04-13T07:37:30.968Z,27.23
2018-04-13T07:39:58.984Z,38.80
2018-04-13T07:42:27.317Z,29.77
2018-04-13T07:44:55.660Z,29.80
2018-04-13T07:47:23.985Z,32.37
2018-04-13T07:49:52.329Z,32.27
2018-04-13T07:52:20.676Z,29.50
2018-04-13T07:54:49.001Z,33.43
2018-04-13T07:57:18.333Z,38.93
2018-04-13T07:59:46.690Z,31.13
2018-04-13T08:02:15.009Z,42.30
2018-04-13T08:04:43.356Z,34.67
2018-04-13T08:07:11.826Z,32.30
2018-04-13T08:09:40.024Z,35.17
2018-04-13T08:12:08.344Z,40.10
2018-04-13T08:14:36.692Z,36.67
2018-04-13T08:17:05.014Z,33.90
2018-04-13T08:19:33.360Z,35.30
2018-04-13T08:22:01.685Z,37.57
2018-04-13T08:24:30.035Z,32.57
2018-04-13T08:26:58.356Z,34.47
2018-04-13T08:29:26.709Z,36.13
2018-04-13T08:31:55.033Z,38.43
2018-04-13T08:34:23.400Z,44.10
2018-04-13T08:36:51.725Z,47.77
2018-04-13T08:39:20.048Z,40.93
2018-04-13T08:41:48.429Z,37.13
2018-04-13T08:44:16.724Z,46.83
2018-04-13T08:46:45.079Z,38.60
2018-04-13T08:49:13.493Z,37.23
2018-04-13T08:51:41.740Z,42.60
2018-04-13T08:54:10.117Z,42.67
2018-04-13T08:56:38.405Z,56.67
2018-04-13T08:59:06.732Z,46.37
2018-04-13T09:01:35.076Z,44.93
2018-04-13T09:04:03.400Z,52.40
2018-04-13T09:06:31.790Z,49.70
2018-04-13T09:09:00.073Z,52.00
2018-04-13T09:11:28.421Z,39.43
2018-04-13T09:13:56.749Z,49.23
2018-04-13T09:16:25.089Z,44.50
2018-04-13T09:18:53.412Z,46.43
2018-04-13T09:21:21.753Z,46.13
2018-04-13T09:23:50.082Z,61.57
2018-04-13T09:26:18.425Z,50.17
2018-04-13T09:28:46.749Z,56.67
2018-04-13T09:31:15.105Z,50.70
2018-04-13T09:33:43.430Z,57.13
2018-04-13T09:36:11.773Z,63.03
2018-04-13T09:38:40.105Z,48.80
2018-04-13T09:41:08.461Z,57.80
2018-04-13T09:43:36.801Z,48.73
2018-04-13T09:46:05.186Z,57.83
2018-04-13T09:48:33.484Z,52.47
2018-04-13T09:51:01.868Z,52.60
2018-04-13T09:53:30.166Z,54.73
2018-04-13T09:55:58.816Z,56.87
2018-04-13T09:58:27.213Z,52.00
2018-04-13T10:01:00.404Z,54.30
2018-04-13T10:06:31.074Z,59.73
2018-04-13T10:08:59.421Z,58.13
2018-04-13T10:11:27.772Z,57.20
2018-04-13T10:13:56.633Z,63.35
2018-04-13T10:16:24.980Z,76.80
2018-04-13T10:18:53.314Z,59.80
2018-04-13T10:21:21.669Z,60.47
2018-04-13T10:23:50.001Z,53.87
2018-04-13T10:26:21.133Z,61.80
2018-04-13T10:28:49.464Z,62.03
2018-04-13T10:31:17.812Z,63.47
2018-04-13T10:33:46.148Z,55.67
2018-04-13T10:36:14.500Z,54.97
2018-04-13T10:38:42.832Z,57.97
2018-04-13T10:41:11.185Z,60.72
2018-04-13T10:43:39.527Z,61.70
2018-04-13T10:46:07.881Z,58.63
2018-04-13T10:48:36.217Z,61.83
2018-04-13T10:51:04.565Z,65.75
2018-04-13T10:53:32.892Z,65.47
2018-04-13T10:56:01.240Z,67.60
2018-04-13T10:58:29.573Z,71.30
2018-04-13T11:00:58.328Z,77.00
2018-04-13T11:03:26.922Z,78.97
2018-04-13T11:05:55.567Z,74.22
2018-04-13T11:08:23.953Z,91.90
2018-04-13T11:10:52.737Z,81.13
2018-04-13T11:13:21.208Z,86.70
2018-04-13T11:15:49.521Z,84.20
2018-04-13T11:18:17.872Z,84.37
2018-04-13T11:20:46.201Z,77.70
2018-04-13T11:23:14.551Z,74.20
2018-04-13T11:25:42.893Z,68.85
2018-04-13T11:28:11.248Z,67.83
2018-04-13T11:30:39.617Z,63.17
2018-04-13T11:33:07.993Z,65.23
2018-04-13T11:35:36.337Z,72.50
2018-04-13T11:38:04.717Z,67.27
2018-04-13T11:40:33.057Z,70.43
2018-04-13T11:43:01.409Z,61.97
2018-04-13T11:45:29.752Z,61.83
2018-04-13T11:47:58.139Z,66.95
2018-04-13T11:50:26.749Z,68.57
2018-04-13T11:52:55.100Z,63.37
2018-04-13T11:55:23.465Z,58.97
2018-04-13T11:57:51.829Z,61.37
2018-04-13T12:00:20.164Z,68.10
2018-04-13T12:02:48.533Z,65.73
2018-04-13T12:05:16.867Z,69.03
2018-04-13T12:07:45.225Z,78.70
2018-04-13T12:10:13.559Z,55.80
2018-04-13T12:12:41.923Z,56.47
2018-04-13T12:15:10.274Z,58.63
2018-04-13T12:17:38.625Z,58.37
2018-04-13T12:20:07.010Z,69.10
2018-04-13T12:22:35.365Z,59.40
2018-04-13T12:25:03.757Z,71.97
2018-04-13T12:27:32.465Z,68.32
2018-04-13T12:30:00.802Z,65.77
2018-04-13T12:32:29.264Z,57.33
2018-04-13T12:34:57.606Z,54.13
2018-04-13T12:37:25.954Z,59.33
2018-04-13T12:39:54.293Z,52.00
2018-04-13T12:42:22.650Z,47.63
2018-04-13T12:44:51.034Z,56.33
2018-04-13T12:47:19.425Z,58.13
2018-04-13T12:49:47.760Z,56.73
2018-04-13T12:52:16.133Z,59.13
2018-04-13T12:54:44.689Z,60.27
2018-04-13T12:57:12.896Z,65.63
2018-04-13T12:59:41.216Z,65.73
2018-04-13T13:02:09.593Z,66.22
2018-04-13T13:04:37.917Z,66.67
2018-04-13T13:07:06.432Z,70.17
2018-04-13T13:09:34.936Z,67.00
2018-04-13T13:12:03.613Z,64.33
2018-04-13T13:14:31.948Z,64.37
2018-04-13T13:17:00.297Z,65.90
2018-04-13T13:19:28.657Z,76.25
2018-04-13T13:21:56.992Z,71.33
2018-04-13T13:24:25.358Z,71.00
2018-04-13T13:26:53.736Z,70.70
2018-04-13T13:29:22.072Z,71.27
2018-04-13T13:31:50.417Z,72.53
2018-04-13T13:34:18.908Z,70.30
2018-04-13T13:36:48.301Z,66.40
2018-04-13T13:39:16.660Z,66.80
2018-04-13T13:41:44.988Z,77.75
2018-04-13T13:44:14.287Z,75.83
2018-04-13T13:46:44.722Z,62.45
2018-04-13T13:49:13.104Z,64.73
2018-04-13T13:51:41.440Z,68.43
2018-04-13T13:54:10.624Z,65.10
2018-04-13T13:56:38.959Z,58.93
2018-04-13T13:59:07.336Z,62.63
2018-04-13T14:01:35.669Z,59.47
2018-04-13T14:04:04.065Z,60.75
2018-04-13T14:06:32.374Z,63.97
2018-04-13T14:09:00.732Z,59.20
2018-04-13T14:11:29.069Z,66.43
2018-04-13T14:13:58.364Z,68.47
2018-04-13T14:16:27.658Z,71.77
2018-04-13T14:18:56.017Z,68.67
2018-04-13T14:21:24.360Z,58.40
2018-04-13T14:23:52.725Z,59.57
2018-04-13T14:26:21.985Z,62.65
2018-04-13T14:28:50.345Z,65.00
2018-04-13T14:31:18.690Z,60.30
2018-04-13T14:33:47.046Z,64.17
2018-04-13T14:36:19.184Z,65.50
2018-04-13T14:38:48.322Z,64.00
2018-04-13T14:41:16.653Z,59.40
2018-04-13T14:43:45.018Z,57.17
2018-04-13T14:46:13.362Z,68.10
2018-04-13T14:48:41.730Z,59.53
2018-04-13T14:51:10.060Z,66.70
2018-04-13T14:53:38.439Z,71.17
2018-04-13T14:56:07.124Z,59.70
2018-04-13T14:58:35.508Z,63.70
2018-04-13T15:02:47.994Z,55.90
2018-04-13T15:05:16.354Z,65.63
2018-04-13T15:07:44.685Z,63.15
2018-04-13T15:10:13.047Z,66.40
2018-04-13T15:12:41.380Z,55.40
2018-04-13T15:15:09.737Z,54.20
2018-04-13T15:19:05.509Z,56.63
2018-04-13T15:21:33.841Z,45.97
2018-04-13T15:24:02.201Z,46.60
2018-04-13T15:26:31.523Z,49.20
2018-04-13T15:28:59.885Z,49.47
2018-04-13T15:31:28.229Z,47.43
2018-04-13T15:33:56.582Z,40.72
2018-04-13T15:36:24.924Z,36.13
2018-04-13T15:38:53.284Z,41.13
2018-04-13T15:41:21.621Z,46.30
2018-04-13T15:43:49.974Z,51.37
2018-04-13T15:46:18.309Z,52.77
2018-04-13T15:48:46.733Z,49.20
2018-04-13T15:51:15.061Z,49.83
2018-04-13T15:53:43.417Z,51.43
2018-04-13T15:56:11.753Z,56.20
2018-04-13T15:58:40.112Z,49.27
2018-04-13T16:01:08.452Z,58.17
2018-04-13T16:03:36.785Z,55.13
2018-04-13T16:07:58.124Z,56.77
2018-04-13T16:13:06.752Z,67.17
2018-04-13T16:15:35.113Z,57.83
2018-04-13T16:18:03.467Z,56.80
2018-04-13T16:20:31.817Z,64.33
2018-04-13T16:23:00.161Z,52.10
2018-04-13T16:27:31.745Z,56.93
2018-04-13T16:30:00.129Z,55.20
2018-04-13T16:32:28.460Z,62.63
2018-04-13T16:34:56.841Z,52.53
2018-04-13T16:37:25.190Z,50.43
2018-04-13T16:39:53.545Z,48.10
2018-04-13T16:42:21.880Z,54.30
2018-04-13T16:44:50.240Z,48.73
2018-04-13T16:47:18.590Z,55.27
2018-04-13T16:49:46.958Z,46.10
2018-04-13T16:52:15.289Z,38.70
2018-04-13T16:54:43.648Z,40.83
2018-04-13T16:57:12.006Z,38.73
2018-04-13T16:59:41.101Z,37.08
2018-04-13T17:02:09.438Z,38.70
2018-04-13T17:04:37.797Z,37.00
2018-04-13T17:07:06.141Z,31.10
2018-04-13T17:09:34.502Z,34.95
2018-04-13T17:12:02.852Z,27.80
2018-04-13T17:14:31.214Z,35.38
2018-04-13T17:16:59.560Z,31.73
2018-04-13T17:19:27.917Z,29.47
2018-04-13T17:21:56.264Z,24.00
2018-04-13T17:24:24.645Z,22.90
2018-04-13T17:26:52.981Z,18.17
2018-04-13T17:29:21.364Z,28.52
2018-04-13T17:31:49.685Z,18.07
2018-04-13T17:34:18.025Z,19.77
2018-04-13T17:36:46.389Z,29.23
2018-04-13T17:39:14.733Z,19.57
2018-04-13T17:41:43.097Z,24.57
2018-04-13T17:44:11.445Z,20.17
2018-04-13T17:46:39.809Z,24.10
2018-04-13T17:49:08.148Z,24.77
2018-04-13T17:51:36.510Z,22.90
2018-04-13T17:54:04.861Z,27.60
2018-04-13T17:56:34.200Z,24.90
2018-04-13T17:59:02.548Z,28.13
2018-04-13T18:01:30.908Z,27.30
2018-04-13T18:03:59.240Z,31.87
2018-04-13T18:06:27.603Z,29.37
2018-04-13T18:08:55.933Z,29.77
2018-04-13T18:11:24.294Z,29.50
2018-04-13T18:13:52.633Z,28.40
2018-04-13T18:16:21.360Z,31.67
2018-04-13T18:18:49.704Z,30.67
2018-04-13T18:21:18.055Z,30.17
2018-04-13T18:23:46.396Z,31.87
2018-04-13T18:26:14.761Z,32.43
2018-04-13T18:28:43.103Z,30.30
2018-04-13T18:31:11.469Z,30.60
2018-04-13T18:33:39.804Z,29.15
2018-04-13T18:36:08.166Z,33.23
2018-04-13T18:38:36.508Z,30.23
2018-04-13T18:41:04.869Z,29.60
2018-04-13T18:43:33.212Z,31.63
2018-04-13T18:46:01.573Z,30.55
2018-04-13T18:48:29.913Z,28.53
2018-04-13T18:50:58.273Z,28.62
2018-04-13T18:53:26.625Z,29.10
2018-04-13T18:55:55.272Z,30.70
2018-04-13T18:58:23.608Z,32.37
2018-04-13T19:00:51.977Z,28.80
2018-04-13T19:03:20.315Z,35.67
2018-04-13T19:05:48.673Z,30.90
2018-04-13T19:08:17.018Z,32.90
2018-04-13T19:10:45.376Z,28.90
2018-04-13T19:13:13.722Z,26.30
2018-04-13T19:15:42.261Z,28.77
2018-04-13T19:18:10.598Z,30.33
2018-04-13T19:20:38.953Z,31.90
2018-04-13T19:23:07.293Z,28.93
2018-04-13T19:25:35.661Z,41.08
2018-04-13T19:28:04.001Z,37.00
2018-04-13T19:30:32.332Z,39.65
2018-04-13T19:33:00.693Z,49.43
2018-04-13T19:35:30.033Z,41.75
2018-04-13T19:37:58.395Z,55.53
2018-04-13T19:40:26.733Z,43.03
2018-04-13T19:42:55.089Z,46.70
2018-04-13T19:45:23.430Z,54.63
2018-04-13T19:47:51.785Z,46.27
2018-04-13T19:50:20.127Z,48.43
2018-04-13T19:52:48.482Z,48.00
2018-04-13T19:55:16.818Z,49.03
2018-04-13T19:57:45.220Z,48.10
2018-04-13T20:00:13.509Z,51.93
2018-04-13T20:02:41.873Z,53.13
2018-04-13T20:05:10.216Z,62.75
2018-04-13T20:07:38.573Z,53.50
2018-04-13T20:10:06.921Z,53.45
2018-04-13T20:12:35.291Z,59.47
2018-04-13T20:15:04.405Z,63.60
2018-04-13T20:17:32.822Z,61.80
2018-04-13T20:20:01.166Z,63.73
2018-04-13T20:22:29.520Z,70.00
2018-04-13T20:24:57.861Z,75.50
2018-04-13T20:27:26.225Z,76.63
2018-04-13T20:29:54.585Z,79.12
2018-04-13T20:32:22.942Z,76.03
2018-04-13T20:34:51.272Z,78.17
2018-04-13T20:37:19.640Z,76.87
2018-04-13T20:39:48.916Z,71.70
2018-04-13T20:42:17.275Z,84.57
2018-04-13T20:44:45.616Z,95.80
2018-04-13T20:47:13.980Z,109.20
2018-04-13T20:49:42.333Z,105.50
2018-04-13T20:52:10.696Z,94.40
2018-04-13T20:54:39.074Z,114.87
2018-04-13T20:57:07.400Z,103.80
2018-04-13T20:59:35.744Z,103.03
2018-04-13T21:02:04.109Z,101.63
2018-04-13T21:04:32.453Z,94.80
2018-04-13T21:07:00.821Z,90.70
2018-04-13T21:09:29.170Z,94.43
2018-04-13T21:11:57.532Z,99.33
2018-04-13T21:14:25.880Z,98.30
2018-04-13T21:16:54.237Z,97.55
2018-04-13T21:19:22.581Z,86.13
2018-04-13T21:21:50.945Z,89.70
2018-04-13T21:24:19.293Z,98.23
2018-04-13T21:26:47.654Z,96.73
2018-04-13T21:29:15.997Z,105.90
2018-04-13T21:31:44.346Z,112.23
2018-04-13T21:34:13.628Z,109.57
2018-04-13T21:36:41.976Z,121.10
2018-04-13T21:39:10.351Z,123.70
2018-04-13T21:41:38.693Z,131.60
2018-04-13T21:44:07.048Z,122.00
2018-04-13T21:46:35.397Z,119.55
2018-04-13T21:49:03.764Z,129.38
2018-04-13T21:51:32.108Z,133.03
2018-04-13T21:54:00.473Z,126.33
2018-04-13T21:56:29.741Z,136.30
2018-04-13T21:58:58.101Z,130.30
2018-04-13T22:01:26.444Z,136.57
2018-04-13T22:03:54.813Z,134.67
2018-04-13T22:06:24.066Z,144.50
2018-04-13T22:08:52.436Z,150.40
2018-04-13T22:11:20.781Z,146.50
2018-04-13T22:13:49.149Z,157.30
2018-04-13T22:16:17.493Z,160.80
2018-04-13T22:18:45.860Z,158.30
2018-04-13T22:21:14.204Z,157.67
2018-04-13T22:23:42.572Z,157.37
2018-04-13T22:26:10.912Z,151.10
2018-04-13T22:28:39.273Z,144.40
2018-04-13T22:31:07.622Z,131.60
2018-04-13T22:33:35.989Z,150.00
2018-04-13T22:36:04.333Z,144.37
2018-04-13T22:38:32.697Z,136.00
2018-04-13T22:41:01.045Z,135.17
2018-04-13T22:43:29.411Z,133.85
2018-04-13T22:45:57.753Z,137.77
2018-04-13T22:48:26.116Z,130.17
2018-04-13T22:50:54.456Z,151.77
2018-04-13T22:53:22.821Z,135.47
2018-04-13T22:55:51.173Z,134.68
2018-04-13T22:58:19.534Z,132.10
2018-04-13T23:00:47.873Z,129.17
2018-04-13T23:03:16.245Z,129.35
2018-04-13T23:05:44.597Z,134.43
2018-04-13T23:08:13.929Z,125.90
2018-04-13T23:10:42.273Z,124.90
2018-04-13T23:13:10.633Z,133.00
2018-04-13T23:15:38.982Z,128.20
2018-04-13T23:18:07.345Z,130.63
2018-04-13T23:20:35.689Z,131.77
2018-04-13T23:23:04.048Z,138.50
2018-04-13T23:25:32.388Z,137.60
2018-04-13T23:28:01.028Z,144.48
2018-04-13T23:30:29.405Z,139.95
2018-04-13T23:32:57.785Z,147.57
2018-04-13T23:35:26.125Z,134.70
2018-04-13T23:37:54.473Z,136.82
2018-04-13T23:40:22.841Z,125.90
2018-04-13T23:42:51.180Z,120.47
2018-04-13T23:45:19.548Z,132.73
2018-04-13T23:47:47.892Z,135.17
2018-04-13T23:50:16.271Z,121.97
2018-04-13T23:52:44.604Z,117.70
2018-04-13T23:55:12.969Z,123.68
2018-04-13T23:57:41.321Z,116.53
